Hlavní strana
METAR-TAF:

METAR-TAF

Letiště :

Mezinárodní letiště Hurghada

Hurghada, Egypt

zeměpisná šířka: 27-09N, zeměpisná délka: 033-43E, výška: 16 m

Aktuální stav počasí

Zpráva byla vytvořena před 1 hodinou a 31 minutami, v 23:00 UTC
Západoseverozápadní vítr 12 kt
Teplota 16°C
Vlhkost vzduchu 29%
Tlak 1014 hPa
Viditelnost: 6000 m

METAR: HEGN 122300Z 29012KT 6000 NSC 16/M02 Q1014 NOSIG

Čas: 02:31 (00:31 UTC)

Předpověď počasí

Zpráva byla vytvořena před 1 hodinou a 31 minutami, v 23:00 UTC
Předpověď platná od 13 v 00 UTC do 14 v 06 UTC
Západoseverozápadní vítr 8 kt s nárazy do 20 kt
Viditelnost 10 km a více
Žádná oblačnost pod 1500 m, nevyskytují se cumulonimby.
Dočasný
od 13 v 09 UTC do 13 v 12 UTC
Viditelnost: 4000 m
písek

TAF: HEGN 122300Z 1300/1406 29008G20KT CAVOK TEMPO 1309/1312 4000 SA NSC

Stav a předpovědi počasí z více než 4 000 letišť (zprávy METAR a TAF).

Červené a žluté tečky na mapě představují dostupné meteorologické stanice.

Když kurzor umístíte na tečku, zobrazí se název stanice.

Pak kliknutím zobrazíte stav a předpověď počasí.

Chcete-li změnit mapu, kliknutím na zelené tlačítko se znaménkem +mapu přiblížíte, kliknutím na zelené tlačítko se znaménkem – mapu oddálíte a kliknutím na zelené šipky přejdete na sousední mapy.


METAR-TAF: